Etusivu
METAR-TAF:

METAR-TAF

Lentoasemat :

São Gabriel da Cachoeira, Amazonas, Brasilia

Leveyspiiri: 00-08S, Pituuspiiri: 067-05W, korkeus merenpinnasta: 90 m

Tämänhetkinen sää

Tämä raportti tehtiin 7 tuntia ja 20 minuuttia sitten, kello 19.00 UTC
Tuuli 2 kn eri suunnista
Lämpötila 28°C
Kosteus 89%
Ilmanpaine 1010 hPa
Näkyvyys 10 km tai enemmän
Muutamia pilviä 3000 ft:n korkeudessa, Kasvava cumulus-pilvi.

METAR: SBUA 231900Z VRB02KT 9999 FEW030TCU 28/26 Q1010

Aika: 22:20 (02:20 UTC)


TAF: puuttuu

Säähavainnot ja -ennusteet yli 4000 lentoasemalta (METAR- ja TAF-raportit).

Käytössä olevat sääasemat on merkitty karttaan keltaisilla ja punaisilla pisteillä.

Aseta hiiri pisteen päälle nähdäksesi sääaseman nimen.

Klikkaa sitten nähdäksesi säähavainnot ja -ennusteet.

Kartan vaihtaminen: klikkaa mustalla rastilla varustettuja vihreitä pisteitä, niin voit zoomata sisään; viivalla varustettua vihreää pistettä, niin voit zoomata ulos tai vihreitä nuolia, niin pääset viereisille kartoille.


METAR-TAF: